Stations météo

réclame
Mon MeteoGroup
Kristianstad, Suède (2651): Température de l'air & dewpoint: 01.08.2020 17:00:00 - 07.08.2020 17:00:00 (CEST)Kristianstad, Suède (2651): Vitesse du vent: 01.08.2020 17:00:00 - 07.08.2020 17:00:00 (CEST)Kristianstad, Suède (2651): Direction du vent: 01.08.2020 17:00:00 - 07.08.2020 17:00:00 (CEST)Kristianstad, Suède (2651): visibility: 01.08.2020 17:00:00 - 07.08.2020 17:00:00 (CEST)
Date & Time tt [°C] td [°C] ff [km/h] ff [knt] dd vv [km]
07.08.2020 17:00:00 25,0 12,0 18 10 ESE 10
07.08.2020 16:00:00 26,0 12,0 21 11 E 10
07.08.2020 15:00:00 26,0 15,0 16 9 SE 10
07.08.2020 14:00:00 25,0 15,0 18 10 ESE 10
07.08.2020 13:00:00 25,0 16,0 16 9 ESE 10
07.08.2020 12:00:00 26,0 16,0 15 8 SE 10
07.08.2020 11:00:00 24,0 17,0 11 6 SE 10
07.08.2020 10:00:00 23,0 17,0 9 5 ESE 10
07.08.2020 09:00:00 21,0 16,0 9 5 E 10
07.08.2020 08:00:00 18,0 15,0 0 0 N 10
07.08.2020 07:00:00 13,0 13,0 0 0 N 10
07.08.2020 06:00:00 10,0 10,0 0 0 N 7
07.08.2020 05:00:00 11,0 11,0 5 3 W 9
07.08.2020 04:00:00 11,0 11,0 0 0 N 0,7
07.08.2020 03:00:00 11,0 11,0 0 0 N 7
07.08.2020 02:00:00 12,0 12,0 0 0 N 0,7
07.08.2020 01:00:00 13,0 12,0 0 0 N 10
07.08.2020 00:00:00 14,0 13,0 4 2 - 10
06.08.2020 23:00:00 16,0 12,0 5 3 SSE 10
06.08.2020 22:00:00 17,0 13,0 5 3 SE 10
06.08.2020 21:00:00 20,0 13,0 8 4 ESE 10
06.08.2020 20:00:00 23,0 11,0 16 9 SE 10
06.08.2020 19:00:00 26,0 11,0 15 8 SSE 10
06.08.2020 18:00:00 28,0 9,0 11 6 SSW 10
06.08.2020 17:00:00 29,0 10,0 15 8 SSW 10
06.08.2020 16:00:00 29,0 10,0 15 8 S 10
06.08.2020 15:00:00 30,0 12,0 16 9 SSE 10
06.08.2020 14:00:00 30,0 12,0 15 8 S 10
06.08.2020 13:00:00 29,0 13,0 18 10 ESE 10
06.08.2020 12:00:00 27,0 15,0 16 9 E 10
06.08.2020 11:00:00 27,0 15,0 13 7 E 10
06.08.2020 10:00:00 26,0 14,0 5 3 - 10
06.08.2020 09:00:00 22,0 15,0 2 1 - 10
06.08.2020 08:00:00 19,0 14,0 0 0 N 10
06.08.2020 07:00:00 17,0 14,0 5 3 N 10
06.08.2020 06:00:00 16,0 13,0 4 2 N 10
06.08.2020 05:00:00 17,0 13,0 0 0 N 10
06.08.2020 04:00:00 16,0 13,0 5 3 NE 10
06.08.2020 03:00:00 19,0 13,0 8 4 SW 10
06.08.2020 02:00:00 19,0 13,0 4 2 - 10
06.08.2020 01:00:00 18,0 12,0 8 4 SSW 10
06.08.2020 00:00:00 20,0 12,0 15 8 SSW 10
05.08.2020 23:00:00 20,0 11,0 16 9 SSW 10
05.08.2020 22:00:00 20,0 11,0 15 8 SSW 10
05.08.2020 21:00:00 20,0 11,0 11 6 S 10
05.08.2020 20:00:00 22,0 11,0 16 9 S 10
05.08.2020 19:00:00 22,0 11,0 21 11 SSW 10
05.08.2020 18:00:00 25,0 10,0 22 12 S 10
05.08.2020 17:00:00 23,0 10,0 21 11 SSW 10
05.08.2020 16:00:00 22,0 10,0 18 10 SW 10
05.08.2020 15:00:00 22,0 10,0 21 11 SSW 10
05.08.2020 14:00:00 22,0 10,0 22 12 SSW 10
05.08.2020 13:00:00 21,0 11,0 18 10 S 10
05.08.2020 12:00:00 19,0 12,0 16 9 S 10
05.08.2020 11:00:00 19,0 12,0 15 8 SSW 10
05.08.2020 10:00:00 18,0 11,0 16 9 SW 10
05.08.2020 09:00:00 16,0 11,0 8 4 S 10
05.08.2020 08:00:00 15,0 11,0 8 4 S 10
05.08.2020 07:00:00 12,0 11,0 8 4 S 10
05.08.2020 06:00:00 8,0 8,0 9 5 SW 10
05.08.2020 05:00:00 8,0 8,0 8 4 SW 10
05.08.2020 04:00:00 8,0 7,0 5 3 SW 0,7
05.08.2020 03:00:00 8,0 7,0 8 4 SW 10
05.08.2020 02:00:00 8,0 8,0 5 3 SW 10
05.08.2020 01:00:00 9,0 8,0 0 0 N 10
05.08.2020 00:00:00 10,0 8,0 4 2 S 10
04.08.2020 23:00:00 11,0 8,0 2 1 SW 10
04.08.2020 22:00:00 12,0 8,0 0 0 N 10
04.08.2020 21:00:00 16,0 8,0 5 3 WNW 10
04.08.2020 20:00:00 18,0 7,0 11 6 NW 10
04.08.2020 19:00:00 19,0 7,0 16 9 NW 10
04.08.2020 18:00:00 20,0 7,0 16 9 NW 10
04.08.2020 17:00:00 21,0 7,0 18 10 WNW 10
04.08.2020 16:00:00 20,0 7,0 22 12 NW 10
04.08.2020 15:00:00 21,0 7,0 24 13 WNW 10
04.08.2020 14:00:00 21,0 8,0 22 12 WNW 10
04.08.2020 13:00:00 20,0 8,0 24 13 NW 10
04.08.2020 12:00:00 20,0 9,0 18 10 WNW 10
04.08.2020 11:00:00 18,0 9,0 21 11 WNW 10
04.08.2020 10:00:00 17,0 10,0 18 10 WNW 10
04.08.2020 09:00:00 16,0 11,0 18 10 WNW 10
04.08.2020 08:00:00 14,0 11,0 13 7 WNW 10
04.08.2020 07:00:00 12,0 10,0 11 6 W 10
04.08.2020 06:00:00 10,0 10,0 8 4 W 10
04.08.2020 05:00:00 10,0 9,0 8 4 WNW 10
04.08.2020 04:00:00 11,0 10,0 8 4 WNW 10
04.08.2020 03:00:00 11,0 10,0 9 5 WNW 10
04.08.2020 02:00:00 11,0 10,0 8 4 WNW 10
04.08.2020 01:00:00 11,0 10,0 8 4 WNW 10
04.08.2020 00:00:00 13,0 10,0 9 5 WNW 10
03.08.2020 23:00:00 13,0 10,0 9 5 W 10
03.08.2020 22:00:00 15,0 10,0 5 3 W 10
03.08.2020 21:00:00 16,0 10,0 9 5 WNW 10
03.08.2020 20:00:00 18,0 10,0 15 8 WNW 10
03.08.2020 19:00:00 19,0 9,0 15 8 NW 10
03.08.2020 18:00:00 20,0 9,0 18 10 NW 10
03.08.2020 17:00:00 21,0 9,0 18 10 WNW 10
03.08.2020 16:00:00 21,0 10,0 18 10 W 10
03.08.2020 15:00:00 21,0 10,0 18 10 WNW 10
03.08.2020 14:00:00 21,0 11,0 15 8 WNW 10
03.08.2020 13:00:00 20,0 10,0 21 11 NW 10
03.08.2020 12:00:00 19,0 11,0 13 7 WNW 10
03.08.2020 11:00:00 18,0 11,0 15 8 WNW 10
03.08.2020 10:00:00 18,0 12,0 11 6 WNW 10
03.08.2020 09:00:00 16,0 12,0 11 6 WNW 10
03.08.2020 08:00:00 15,0 14,0 15 8 WNW 10
03.08.2020 07:00:00 15,0 14,0 8 4 WNW 10
03.08.2020 06:00:00 15,0 15,0 11 6 NW 10
03.08.2020 05:00:00 15,0 14,0 9 5 WNW 10
03.08.2020 04:00:00 15,0 14,0 8 4 W 10
03.08.2020 03:00:00 13,0 13,0 0 0 N 10
03.08.2020 02:00:00 12,0 12,0 8 4 SW 10
03.08.2020 01:00:00 12,0 12,0 4 2 - 10
03.08.2020 00:00:00 12,0 12,0 4 2 S 10
02.08.2020 23:00:00 12,0 11,0 4 2 WSW 10
02.08.2020 22:00:00 16,0 13,0 5 3 W 10
02.08.2020 21:00:00 18,0 14,0 5 3 WNW 10
02.08.2020 20:00:00 19,0 14,0 11 6 W 10
02.08.2020 19:00:00 20,0 14,0 15 8 W 10
02.08.2020 18:00:00 21,0 14,0 16 9 W 10
02.08.2020 17:00:00 22,0 14,0 16 9 NW 10
02.08.2020 16:00:00 23,0 14,0 15 8 W 10
02.08.2020 15:00:00 22,0 14,0 16 9 W 10
02.08.2020 14:00:00 22,0 16,0 15 8 W 10
02.08.2020 13:00:00 21,0 16,0 11 6 W 10
02.08.2020 12:00:00 21,0 17,0 5 3 W 10
02.08.2020 11:00:00 19,0 17,0 11 6 W 10
02.08.2020 10:00:00 18,0 17,0 4 2 - 10
02.08.2020 09:00:00 17,0 17,0 4 2 SE 10
02.08.2020 08:00:00 16,0 16,0 4 2 - 10
02.08.2020 07:00:00 16,0 16,0 5 3 E 10
02.08.2020 06:00:00 15,0 15,0 5 3 E 10
02.08.2020 05:00:00 16,0 16,0 8 4 ESE 10
02.08.2020 04:00:00 16,0 16,0 5 3 ESE 6
02.08.2020 03:00:00 15,0 15,0 5 3 ESE 0,5
02.08.2020 02:00:00 16,0 16,0 5 3 ESE 0,2
02.08.2020 01:00:00 16,0 16,0 5 3 SE 0,1
02.08.2020 00:00:00 15,0 15,0 5 3 SSE 0,1
01.08.2020 23:00:00 15,0 14,0 5 3 SE 3,3
01.08.2020 22:00:00 16,0 15,0 8 4 ESE 10
01.08.2020 21:00:00 17,0 15,0 9 5 ESE 10
01.08.2020 20:00:00 20,0 14,0 15 8 ESE 10
01.08.2020 19:00:00 20,0 15,0 15 8 ESE 10
01.08.2020 18:00:00 23,0 13,0 16 9 SE 10
01.08.2020 17:00:00 24,0 12,0 18 10 SE 10

tt = Température de l'air
td = dewpoint
ff = Vitesse du vent
dd = Direction du vent
vv = visibility

stations d'obs. à proximité